5AR2 weather

Turrell Flying Service Airport
Turrell, Arkansas, United States

Public forecast

Using degrees Fahrenheit for public forecast. Weather courtesy of forecast.io.

METAR (pilot weather report)

Closest report is West Memphis Municipal Airport, 14.5 nm (26.8 km) S. Retrieved 2019/06/26 00:53 UTC (8 minutes ago):

KAWM 260053Z AUTO 20006KT 8SM SCT034 28/24 A3004 RMK AO2 LTG DSNT SW SLP167 T02780244

TAF (pilot weather forecast)

Forecast is more than 12 hours old.

Closest forecast is Memphis International Airport, 22.9 nm (42.5 km) SSE. Retrieved 2019/06/25 00:28 UTC (1 day ago):

TAF KMEM 252325Z 2600/2706 19005KT P6SM VCTS SCT040CB BKN250 FM260200 19004KT P6SM SCT030 BKN250 FM261300 22006KT P6SM SCT040 BKN200 FM270000 VRB03KT P6SM SCT040 BKN200